Time;durP1;ratioP1;P1;durP2;ratioP2;P2;SDS_P1;SDS_P2;PMS_P1;PMS_P2;Temp;Humidity;BMP_temperature;BMP_pressure;BME280_temperature;BME280_humidity;BME280_pressure;Samples;Min_cycle;Max_cycle;Signal;HPM_P1;HPM_P2
2022/10/30 07:59:26;;;;;;;;;21.50;20.75;;;;;16.70;84.95;101422.59;4925016;28;49910;-76
2022/10/30 08:01:51;;;;;;;;;22.25;19.75;;;;;16.74;84.74;101424.38;4918700;28;50068;-76
2022/10/30 08:04:16;;;;;;;;;20.25;18.50;;;;;16.72;84.42;101418.19;4931223;28;51902;-72
2022/10/30 08:06:42;;;;;;;;;18.50;17.75;;;;;16.81;84.40;101439.44;4948997;28;49971;-78
2022/10/30 08:09:08;;;;;;;;;21.00;19.00;;;;;16.32;83.88;101359.59;4949823;28;50028;-72
2022/10/30 08:11:33;;;;;;;;;21.25;21.25;;;;;15.96;83.83;101305.47;4950673;28;49823;-75
2022/10/30 08:13:59;;;;;;;;;26.50;22.00;;;;;16.10;83.68;101312.59;4950292;28;49993;-75
2022/10/30 08:16:25;;;;;;;;;22.75;20.00;;;;;16.50;83.50;101343.81;4950585;28;49699;-74
2022/10/30 08:18:50;;;;;;;;;24.50;20.50;;;;;16.99;83.44;101421.00;4950682;28;49545;-79
2022/10/30 08:21:15;;;;;;;;;26.00;21.25;;;;;17.34;83.16;101470.66;4961369;28;49901;-76
2022/10/30 08:23:41;;;;;;;;;21.25;19.50;;;;;17.36;82.93;101459.16;4953119;28;50608;-78
2022/10/30 08:26:06;;;;;;;;;23.50;21.00;;;;;17.46;82.47;101452.13;4950628;28;49719;-74
2022/10/30 08:28:32;;;;;;;;;23.50;20.00;;;;;17.52;81.81;101456.56;4955782;28;49796;-73
2022/10/30 08:30:58;;;;;;;;;23.50;22.50;;;;;16.97;81.74;101384.69;4957435;28;49846;-73
2022/10/30 08:33:24;;;;;;;;;20.00;19.00;;;;;17.61;81.89;101462.78;4950264;28;50598;-75
2022/10/30 08:35:51;;;;;;;;;27.50;25.75;;;;;16.52;81.48;101296.09;4950734;28;50007;-75
2022/10/30 08:38:17;;;;;;;;;18.00;17.75;;;;;17.49;81.34;101441.53;4950792;28;49879;-73
2022/10/30 08:40:43;;;;;;;;;26.00;22.50;;;;;17.65;80.70;101451.28;4951458;28;50138;-73
2022/10/30 08:43:09;;;;;;;;;27.50;24.00;;;;;17.32;80.32;101412.28;4953439;28;49777;-72
2022/10/30 08:45:34;;;;;;;;;24.00;21.75;;;;;17.61;80.77;101462.78;4958321;28;50285;-72
2022/10/30 08:48:02;;;;;;;;;27.25;21.00;;;;;17.74;80.51;101454.00;4954101;28;49845;-72
2022/10/30 08:50:28;;;;;;;;;22.50;21.75;;;;;17.27;79.88;101375.97;4954010;28;49804;-71
2022/10/30 08:52:54;;;;;;;;;19.00;16.25;;;;;17.61;79.95;101419.44;4948730;28;49771;-73
2022/10/30 08:55:20;;;;;;;;;28.00;23.00;;;;;16.71;79.57;101265.28;4933772;28;49708;-70
2022/10/30 08:57:45;;;;;;;;;26.75;23.50;;;;;18.04;79.55;101457.59;4934940;28;50055;-71
2022/10/30 09:00:11;;;;;;;;;22.75;22.75;;;;;17.91;78.86;101416.84;4935054;28;49736;-71
2022/10/30 09:02:39;;;;;;;;;20.00;18.50;;;;;18.20;78.34;101464.72;4934413;28;51192;-71
2022/10/30 09:05:08;;;;;;;;;21.75;21.25;;;;;17.74;78.36;101373.44;4937170;28;49955;-70
2022/10/30 09:07:34;;;;;;;;;23.00;22.75;;;;;18.30;78.32;101454.97;4934755;28;49782;-77
2022/10/30 09:10:00;;;;;;;;;23.25;22.50;;;;;17.95;77.65;101392.09;4934955;28;49981;-71
2022/10/30 09:12:25;;;;;;;;;21.25;19.25;;;;;17.52;77.50;101314.09;4934505;28;50868;-72
2022/10/30 09:14:54;;;;;;;;;19.25;18.00;;;;;18.35;77.37;101455.88;4934601;28;49810;-80
2022/10/30 09:17:19;;;;;;;;;21.75;20.00;;;;;18.27;77.30;101454.97;4947448;28;49447;-77
2022/10/30 09:19:45;;;;;;;;;24.75;22.50;;;;;18.37;77.54;101490.41;4942661;28;49966;-72
2022/10/30 09:22:10;;;;;;;;;21.25;20.00;;;;;18.33;77.59;101494.81;4936781;28;50917;-71
2022/10/30 09:24:36;;;;;;;;;24.50;22.00;;;;;18.31;77.31;101494.84;4934309;28;49773;-69
2022/10/30 09:27:01;;;;;;;;;26.50;22.50;;;;;17.98;77.68;101423.06;4944560;28;49849;-70
2022/10/30 09:29:29;;;;;;;;;26.25;23.75;;;;;17.89;77.65;101409.78;4953259;28;49533;-71
2022/10/30 09:31:55;;;;;;;;;22.50;21.50;;;;;18.49;77.06;101519.66;4917348;28;50547;-69
2022/10/30 09:34:20;;;;;;;;;20.75;20.50;;;;;17.95;76.78;101397.41;4893744;28;50130;-69
2022/10/30 09:36:46;;;;;;;;;21.75;20.25;;;;;18.57;76.50;101510.81;4922209;28;50975;-70
2022/10/30 09:39:12;;;;;;;;;16.25;16.25;;;;;17.98;75.50;101392.09;4924130;28;49937;-70
2022/10/30 09:42:27;;;;;;;;;21.75;20.00;;;;;18.59;74.98;101505.47;4925799;28;50276;-72
2022/10/30 09:45:24;;;;;;;;;17.25;15.75;;;;;18.68;74.13;101488.66;4920117;28;50221;-72
2022/10/30 09:48:17;;;;;;;;;17.50;17.50;;;;;18.48;74.20;101456.75;4926428;28;49592;-79
2022/10/30 09:51:14;;;;;;;;;18.75;17.25;;;;;18.53;73.87;101447.00;4923570;28;49828;-75
2022/10/30 09:53:55;;;;;;;;;17.50;17.50;;;;;18.96;73.83;101514.34;4924487;28;51030;-74
2022/10/30 09:56:28;;;;;;;;;19.00;19.00;;;;;19.04;73.10;101533.84;4926164;28;50163;-76
2022/10/30 09:59:16;;;;;;;;;19.75;16.50;;;;;18.54;71.87;101403.56;4925386;28;49874;-72
2022/10/30 10:01:54;;;;;;;;;16.25;14.00;;;;;19.16;71.77;101517.84;4926438;28;49818;-71
2022/10/30 10:04:50;;;;;;;;;17.25;16.50;;;;;19.26;70.94;101517.81;4922637;28;52291;-73
2022/10/30 10:07:25;;;;;;;;;14.50;13.75;;;;;19.16;71.33;101501.88;4923769;28;49964;-76
2022/10/30 10:09:58;;;;;;;;;17.50;14.75;;;;;19.41;70.78;101481.41;4924387;28;49870;-73
2022/10/30 10:12:34;;;;;;;;;14.00;13.00;;;;;19.62;69.96;101506.19;4924552;28;50970;-75
2022/10/30 10:15:05;;;;;;;;;13.00;11.00;;;;;18.35;69.56;101279.56;4925527;28;50927;-72
2022/10/30 10:17:36;;;;;;;;;14.00;11.75;;;;;19.02;69.43;101357.34;4923531;28;50076;-72
2022/10/30 10:20:04;;;;;;;;;14.00;14.00;;;;;19.22;69.70;101378.53;4924618;28;49898;-74
2022/10/30 10:22:39;;;;;;;;;17.25;14.50;;;;;19.90;69.32;101498.94;4924458;28;49627;-69
2022/10/30 10:25:10;;;;;;;;;18.75;13.75;;;;;19.70;67.91;101424.47;4928965;28;49959;-72
2022/10/30 10:27:53;;;;;;;;;8.75;8.75;;;;;20.16;68.04;101482.75;4916534;28;50185;-73
2022/10/30 10:30:34;;;;;;;;;18.75;17.75;;;;;19.41;67.75;101350.03;4925097;28;49890;-75
2022/10/30 10:33:23;;;;;;;;;15.25;14.25;;;;;20.30;67.17;101496.88;4935367;28;49673;-73
2022/10/30 10:36:28;;;;;;;;;15.75;14.25;;;;;20.40;67.02;101508.38;4931607;28;50751;-75
2022/10/30 10:39:02;;;;;;;;;12.75;12.25;;;;;20.47;67.22;101515.47;4938050;28;50694;-75
2022/10/30 10:41:34;;;;;;;;;10.75;10.75;;;;;20.55;66.61;101513.59;4931356;28;49877;-72
2022/10/30 10:44:37;;;;;;;;;16.25;11.50;;;;;20.06;65.85;101417.09;4925866;28;49923;-73
2022/10/30 10:47:29;;;;;;;;;9.75;9.75;;;;;19.58;64.88;101380.13;4923308;28;50162;-74
2022/10/30 10:50:17;;;;;;;;;8.00;8.00;;;;;20.67;64.80;101547.31;4928237;28;50178;-72
2022/10/30 10:52:59;;;;;;;;;11.25;10.00;;;;;20.62;64.74;101539.34;4925897;28;49580;-74
2022/10/30 10:55:30;;;;;;;;;14.75;14.00;;;;;19.36;64.36;101350.06;4934062;28;49857;-79
2022/10/30 10:58:03;;;;;;;;;13.25;12.00;;;;;20.05;64.13;101471.28;4935043;28;50759;-75
2022/10/30 11:00:29;;;;;;;;;10.50;10.50;;;;;19.48;64.35;101356.19;4937082;28;49571;-73
2022/10/30 11:03:31;;;;;;;;;11.00;10.00;;;;;20.58;64.38;101557.16;4895416;28;51091;-74
2022/10/30 11:06:03;;;;;;;;;8.00;8.00;;;;;19.39;64.63;101375.78;4911393;28;50221;-73
2022/10/30 11:08:31;;;;;;;;;13.75;12.50;;;;;19.12;64.83;101331.59;4924097;28;49855;-75
2022/10/30 11:11:00;;;;;;;;;12.50;12.50;;;;;19.62;65.14;101407.66;4925707;28;50046;-72
2022/10/30 11:13:30;;;;;;;;;14.75;10.50;;;;;19.89;65.23;101473.19;4924383;28;49912;-72
2022/10/30 11:16:10;;;;;;;;;17.00;11.00;;;;;20.44;65.38;101543.03;4929044;28;50191;-81
2022/10/30 11:18:35;;;;;;;;;14.00;12.50;;;;;19.38;65.20;101352.69;4929121;28;50370;-74
2022/10/30 11:21:09;;;;;;;;;13.75;12.75;;;;;20.70;65.31;101568.63;4930738;28;49995;-74
2022/10/30 11:23:34;;;;;;;;;12.50;12.50;;;;;20.68;65.25;101565.09;4927624;28;50165;-74
2022/10/30 11:26:04;;;;;;;;;12.50;12.25;;;;;20.14;65.61;101476.56;4935405;28;49604;-76
2022/10/30 11:28:35;;;;;;;;;13.00;13.00;;;;;20.65;65.73;101557.09;4929370;28;51361;-74
2022/10/30 11:31:22;;;;;;;;;16.25;14.00;;;;;20.53;65.53;101526.06;4937419;28;49775;-73
2022/10/30 11:33:49;;;;;;;;;13.00;13.00;;;;;20.77;65.62;101570.34;4943431;28;49752;-73
2022/10/30 11:36:17;;;;;;;;;16.25;14.00;;;;;19.97;65.71;101424.25;4936352;28;49965;-73
2022/10/30 11:38:42;;;;;;;;;13.75;13.50;;;;;20.83;65.89;101559.59;4932986;28;49766;-75
2022/10/30 11:41:11;;;;;;;;;12.00;11.50;;;;;20.82;66.01;101580.06;4933478;28;49674;-73
2022/10/30 11:43:39;;;;;;;;;12.00;12.00;;;;;20.66;66.00;101553.56;4921284;28;49852;-76
2022/10/30 11:46:08;;;;;;;;;10.00;8.25;;;;;19.97;65.94;101423.38;4932030;28;49647;-77
2022/10/30 11:48:38;;;;;;;;;15.25;13.75;;;;;20.70;66.59;101580.19;4931621;28;50400;-76
2022/10/30 11:51:04;;;;;;;;;10.50;10.50;;;;;20.69;66.58;101590.88;4931956;28;50009;-82
2022/10/30 11:53:37;;;;;;;;;7.75;6.00;;;;;20.46;66.01;101564.34;4929373;28;49890;-80
2022/10/30 11:56:19;;;;;;;;;8.25;7.25;;;;;20.20;65.39;101565.38;4931778;28;49759;-77
2022/10/30 11:58:57;;;;;;;;;12.25;10.00;;;;;19.63;64.55;101500.84;4933619;28;50607;-77
2022/10/30 12:01:25;;;;;;;;;8.25;6.00;;;;;20.48;65.24;101643.47;4946175;28;49915;-78
2022/10/30 12:03:52;;;;;;;;;8.00;7.00;;;;;20.46;65.39;101629.28;4946423;28;49543;-77
2022/10/30 12:06:26;;;;;;;;;6.75;6.75;;;;;20.50;64.85;101628.34;4948968;28;49787;-77
2022/10/30 12:09:11;;;;;;;;;6.50;5.50;;;;;20.42;64.79;101642.59;4948299;28;50101;-78
2022/10/30 12:11:42;;;;;;;;;6.50;6.00;;;;;20.07;64.30;101611.66;4949465;28;49227;-77
2022/10/30 12:14:17;;;;;;;;;7.00;6.00;;;;;20.30;64.73;101671.09;4948074;28;49403;-75
2022/10/30 12:16:46;;;;;;;;;5.50;4.75;;;;;20.30;65.20;101649.75;4951436;28;49877;-77
2022/10/30 12:19:14;;;;;;;;;8.00;8.00;;;;;20.40;65.80;101663.03;4950755;28;50293;-77
2022/10/30 12:21:48;;;;;;;;;7.75;6.75;;;;;20.52;65.87;101641.66;4951216;28;49584;-74
2022/10/30 12:24:19;;;;;;;;;5.25;5.25;;;;;20.64;65.17;101636.25;4950982;28;49649;-73
2022/10/30 12:26:49;;;;;;;;;4.25;4.00;;;;;20.67;64.77;101635.34;4947713;28;49318;-74
2022/10/30 12:29:17;;;;;;;;;8.75;6.00;;;;;20.53;64.30;101606.09;4946054;28;50112;-74
2022/10/30 12:32:05;;;;;;;;;5.75;5.75;;;;;20.83;64.48;101631.66;4949900;28;49831;-75
2022/10/30 12:34:42;;;;;;;;;6.25;6.25;;;;;20.77;64.32;101627.28;4950213;28;49413;-74
2022/10/30 12:37:18;;;;;;;;;6.75;5.50;;;;;20.91;64.71;101640.50;4944754;28;49591;-74
2022/10/30 12:40:00;;;;;;;;;9.50;6.75;;;;;21.00;64.32;101628.88;4948918;28;49829;-72
2022/10/30 12:42:27;;;;;;;;;3.75;2.75;;;;;21.01;63.88;101636.84;4960195;28;49442;-73
2022/10/30 12:45:05;;;;;;;;;6.50;5.50;;;;;21.02;63.86;101638.63;4934285;28;49507;-81
2022/10/30 12:47:52;;;;;;;;;6.00;5.50;;;;;21.01;63.54;101644.84;4945550;28;49324;-78
2022/10/30 12:50:20;;;;;;;;;4.75;4.75;;;;;21.00;63.38;101652.88;4963094;28;49905;-70
2022/10/30 12:52:54;;;;;;;;;4.75;4.00;;;;;20.96;63.21;101645.81;4966478;28;49982;-78
2022/10/30 12:55:25;;;;;;;;;8.00;8.00;;;;;20.66;63.28;101580.22;4970169;28;49376;-76
2022/10/30 12:58:12;;;;;;;;;8.50;7.25;;;;;21.02;63.35;101643.06;4967043;28;49766;-75
2022/10/30 13:01:04;;;;;;;;;3.75;3.75;;;;;20.86;63.41;101632.53;4959471;28;49984;-76
2022/10/30 13:03:36;;;;;;;;;6.00;4.75;;;;;20.84;63.27;101637.00;4927548;28;49808;-76
2022/10/30 13:06:12;;;;;;;;;3.75;3.75;;;;;20.49;63.75;101564.34;4969467;28;49419;-76
2022/10/30 13:09:02;;;;;;;;;4.25;4.25;;;;;20.99;63.74;101645.78;4969347;28;49498;-74
2022/10/30 13:11:38;;;;;;;;;3.25;3.25;;;;;20.85;62.84;101617.44;4968326;28;50059;-71
2022/10/30 13:14:11;;;;;;;;;3.25;2.50;;;;;20.90;63.07;101625.38;4950563;28;49670;-72
2022/10/30 13:16:37;;;;;;;;;4.00;2.75;;;;;21.04;62.75;101639.50;4968162;28;49958;-72
2022/10/30 13:19:02;;;;;;;;;5.75;5.00;;;;;19.73;62.96;101430.66;4968117;28;49669;-71
2022/10/30 13:21:36;;;;;;;;;2.00;2.00;;;;;21.06;62.53;101635.03;4938489;28;51855;-71
2022/10/30 13:24:43;;;;;;;;;3.75;3.75;;;;;20.57;62.84;101544.72;4970899;28;49517;-71
2022/10/30 13:27:14;;;;;;;;;4.75;3.00;;;;;21.19;62.81;101621.56;4968205;28;49565;-70
2022/10/30 13:30:00;;;;;;;;;2.50;1.50;;;;;21.27;62.54;101614.41;4966576;28;49240;-70
2022/10/30 13:33:03;;;;;;;;;1.25;1.25;;;;;21.36;61.92;101617.88;4969147;28;50200;-70
2022/10/30 13:35:55;;;;;;;;;4.00;3.00;;;;;21.47;62.18;101625.78;4946149;28;49630;-71
2022/10/30 13:38:36;;;;;;;;;1.50;1.50;;;;;21.38;61.33;101594.72;4946242;28;49737;-71
2022/10/30 13:41:16;;;;;;;;;0.50;0.50;;;;;21.57;61.04;101621.22;4948137;28;49674;-70
2022/10/30 13:44:15;;;;;;;;;3.50;3.50;;;;;21.43;61.12;101605.34;4950235;28;49684;-71
2022/10/30 13:47:09;;;;;;;;;4.00;4.00;;;;;21.60;60.99;101616.72;4950363;28;49547;-70
2022/10/30 13:49:34;;;;;;;;;2.50;2.50;;;;;21.65;60.77;101609.56;4944125;28;49932;-71
2022/10/30 13:52:11;;;;;;;;;1.50;1.50;;;;;21.51;60.22;101587.44;4949635;28;49374;-70
2022/10/30 13:54:43;;;;;;;;;3.25;2.75;;;;;21.65;60.45;101609.56;4946025;28;49737;-71
2022/10/30 13:57:36;;;;;;;;;2.00;2.00;;;;;21.68;60.39;101620.19;4947269;28;49370;-71
2022/10/30 14:00:12;;;;;;;;;3.25;1.25;;;;;21.54;60.38;101578.53;4951225;28;49233;-69
2022/10/30 14:03:16;;;;;;;;;2.00;1.00;;;;;21.77;60.25;101621.00;4946975;28;49570;-69
2022/10/30 14:05:46;;;;;;;;;3.00;3.00;;;;;21.73;59.46;101613.94;4946784;28;51127;-71
2022/10/30 14:08:42;;;;;;;;;1.25;1.25;;;;;21.65;59.13;101616.69;4949884;28;49370;-70
2022/10/30 14:11:12;;;;;;;;;3.50;1.50;;;;;21.53;59.95;101608.81;4951404;28;49452;-69
2022/10/30 14:13:50;;;;;;;;;1.25;1.25;;;;;21.67;59.97;101626.44;4944166;28;49662;-72
2022/10/30 14:16:36;;;;;;;;;2.00;2.00;;;;;21.70;59.54;101626.41;4940187;28;49645;-69
2022/10/30 14:19:09;;;;;;;;;5.00;2.50;;;;;21.65;58.88;101625.59;4948769;28;49985;-70
2022/10/30 14:21:55;;;;;;;;;3.00;2.00;;;;;21.62;59.39;101622.97;4947249;28;49805;-72
2022/10/30 14:24:30;;;;;;;;;1.50;1.50;;;;;21.57;60.17;101623.91;4946761;28;50162;-71
2022/10/30 14:27:04;;;;;;;;;2.00;2.00;;;;;21.65;60.25;101644.28;4935211;28;49847;-72
2022/10/30 14:29:30;;;;;;;;;3.00;2.75;;;;;21.69;60.34;101639.78;4933377;28;49619;-72
2022/10/30 14:31:55;;;;;;;;;3.00;1.50;;;;;21.71;59.92;101635.31;4933446;28;50413;-71
2022/10/30 14:34:43;;;;;;;;;1.00;1.00;;;;;21.61;59.38;101622.94;4933309;28;49584;-69
2022/10/30 14:37:10;;;;;;;;;2.00;2.00;;;;;21.63;59.93;101632.75;4933261;28;51025;-74
2022/10/30 14:39:43;;;;;;;;;3.00;1.00;;;;;21.56;60.11;101620.34;4932977;28;49863;-72
2022/10/30 14:42:11;;;;;;;;;3.75;2.00;;;;;21.72;59.71;101631.75;4916262;28;50142;-76
2022/10/30 14:44:58;;;;;;;;;1.75;1.75;;;;;21.80;59.31;101636.97;4942825;28;49774;-78
2022/10/30 14:47:51;;;;;;;;;2.75;2.50;;;;;21.46;59.31;101577.72;4942664;28;50675;-69
2022/10/30 14:50:25;;;;;;;;;2.25;2.25;;;;;21.74;59.24;101645.09;4951224;28;49943;-77
2022/10/30 14:53:26;;;;;;;;;2.25;2.25;;;;;21.61;59.35;101630.97;4937270;28;50004;-80
2022/10/30 14:56:35;;;;;;;;;1.75;1.75;;;;;21.56;59.55;101630.16;4839062;29;49883;-78
2022/10/30 14:59:22;;;;;;;;;3.00;2.50;;;;;21.51;60.07;101638.19;4892376;28;50272;-79
2022/10/30 15:02:24;;;;;;;;;3.75;2.50;;;;;21.08;60.78;101586.97;4914080;28;49876;-80
2022/10/30 15:05:27;;;;;;;;;1.50;1.50;;;;;21.11;60.75;101609.16;4929266;28;49917;-79
2022/10/30 15:08:05;;;;;;;;;2.75;1.75;;;;;20.78;60.47;101569.44;4933244;28;49871;-78
2022/10/30 15:10:34;;;;;;;;;2.50;2.50;;;;;21.15;61.15;101644.75;4915135;28;50220;-78
2022/10/30 15:13:19;;;;;;;;;3.75;1.75;;;;;20.84;61.06;101598.72;4933039;28;50010;-78
2022/10/30 15:15:55;;;;;;;;;1.50;1.50;;;;;21.05;61.16;101637.72;4932536;28;49847;-76
2022/10/30 15:18:21;;;;;;;;;6.00;3.25;;;;;20.99;61.11;101640.44;4915505;28;49813;-79
2022/10/30 15:20:51;;;;;;;;;3.00;2.00;;;;;20.94;61.03;101636.91;4932756;28;50953;-79
2022/10/30 15:23:28;;;;;;;;;3.50;1.25;;;;;20.74;61.69;101608.59;4932877;28;49997;-79
2022/10/30 15:25:58;;;;;;;;;2.75;1.00;;;;;20.80;61.59;101616.56;4926766;28;49729;-78
2022/10/30 15:28:30;;;;;;;;;1.75;1.75;;;;;20.81;62.26;101623.66;4926909;28;49898;-78
2022/10/30 15:31:19;;;;;;;;;2.50;1.50;;;;;20.53;62.50;101606.09;4939337;28;50733;-78
2022/10/30 15:33:45;;;;;;;;;1.75;1.75;;;;;20.51;62.73;101589.22;4950880;28;49725;-77
2022/10/30 15:36:18;;;;;;;;;2.75;1.50;;;;;20.56;63.51;101609.63;4951156;28;49928;-79
2022/10/30 15:38:43;;;;;;;;;3.00;2.00;;;;;20.05;62.66;101511.28;4951099;28;49989;-79
2022/10/30 15:41:10;;;;;;;;;3.25;3.00;;;;;20.67;62.53;101628.25;4950912;28;49854;-78
2022/10/30 15:43:40;;;;;;;;;2.25;2.25;;;;;20.77;63.39;101659.28;4951374;28;49904;-79
2022/10/30 15:46:10;;;;;;;;;2.75;2.00;;;;;20.75;63.56;101666.44;4950536;28;49782;-79
2022/10/30 15:48:40;;;;;;;;;3.00;2.00;;;;;20.40;63.23;101634.59;4950845;28;49861;-79
2022/10/30 15:51:17;;;;;;;;;3.25;3.00;;;;;20.47;63.24;101656.81;4949754;28;50383;-77
2022/10/30 15:53:59;;;;;;;;;3.50;2.25;;;;;20.27;63.51;101619.56;4950842;28;49783;-77
2022/10/30 15:56:26;;;;;;;;;2.50;2.50;;;;;20.51;63.17;101648.78;4951113;28;49687;-75
2022/10/30 15:58:57;;;;;;;;;1.75;1.75;;;;;20.43;63.23;101637.25;4950637;28;50444;-79
2022/10/30 16:01:37;;;;;;;;;2.50;2.50;;;;;20.35;63.68;101627.50;4950450;28;49812;-76
2022/10/30 16:04:03;;;;;;;;;4.75;2.75;;;;;20.13;63.79;101608.06;4950461;28;49769;-77
2022/10/30 16:06:30;;;;;;;;;4.75;4.00;;;;;20.23;63.93;101629.34;4950588;28;49910;-79
2022/10/30 16:08:57;;;;;;;;;1.50;1.50;;;;;20.15;64.01;101625.81;4950639;28;49771;-77
2022/10/30 16:11:24;;;;;;;;;1.75;1.75;;;;;19.79;64.64;101589.59;4950478;28;49811;-79
2022/10/30 16:13:50;;;;;;;;;3.00;3.00;;;;;19.30;65.00;101509.84;4950420;28;49805;-80
2022/10/30 16:16:26;;;;;;;;;3.25;3.25;;;;;19.49;65.51;101577.19;4950534;28;49661;-79
2022/10/30 16:18:56;;;;;;;;;3.75;2.25;;;;;19.20;65.58;101541.78;4950903;28;49760;-80
2022/10/30 16:21:23;;;;;;;;;2.25;2.25;;;;;18.86;65.91;101524.13;4950436;28;50821;-79
2022/10/30 16:23:52;;;;;;;;;3.00;3.00;;;;;18.44;66.28;101447.91;4932887;28;49830;-79
2022/10/30 16:26:34;;;;;;;;;3.50;3.50;;;;;19.18;66.26;101581.72;4950394;28;49955;-79
2022/10/30 16:29:20;;;;;;;;;2.00;2.00;;;;;19.87;66.87;101694.34;4950337;28;49618;-78
2022/10/30 16:31:48;;;;;;;;;3.25;3.25;;;;;19.78;67.14;101680.16;4926849;28;50356;-79
2022/10/30 16:34:30;;;;;;;;;5.25;2.75;;;;;19.75;67.10;101678.38;4932016;28;49788;-77
2022/10/30 16:36:57;;;;;;;;;3.00;3.00;;;;;19.71;68.04;101673.97;4932217;28;49921;-79
2022/10/30 16:39:24;;;;;;;;;4.00;4.00;;;;;19.28;68.21;101651.81;4914832;28;49896;-81
2022/10/30 16:41:50;;;;;;;;;4.50;4.00;;;;;19.27;68.90;101624.28;4931678;28;50733;-80
2022/10/30 16:44:18;;;;;;;;;4.75;3.00;;;;;19.70;68.81;101699.72;4932948;28;49729;-79
2022/10/30 16:46:43;;;;;;;;;1.75;1.75;;;;;19.69;68.82;101708.63;4935731;28;50091;-81
2022/10/30 16:49:16;;;;;;;;;3.75;3.25;;;;;19.54;68.75;101681.97;4935579;28;49688;-81
2022/10/30 16:51:42;;;;;;;;;3.50;3.50;;;;;19.25;69.09;101644.72;4935157;28;50688;-81
2022/10/30 16:54:22;;;;;;;;;5.50;3.00;;;;;19.50;68.96;101697.97;4935130;28;49661;-78
2022/10/30 16:56:51;;;;;;;;;3.50;3.50;;;;;19.58;69.29;101705.06;4934259;28;49799;-80
2022/10/30 16:59:28;;;;;;;;;3.75;3.75;;;;;19.49;69.50;101709.47;4931711;28;50047;-79
2022/10/30 17:01:57;;;;;;;;;4.00;4.00;;;;;19.25;69.71;101679.31;4932642;28;50644;-81
2022/10/30 17:04:23;;;;;;;;;4.00;3.00;;;;;18.96;69.49;101644.72;4934921;28;49859;-81
2022/10/30 17:06:49;;;;;;;;;2.50;2.50;;;;;19.26;69.67;101737.00;4936782;28;49824;-81
2022/10/30 17:09:23;;;;;;;;;2.00;2.00;;;;;19.42;69.41;101762.75;4947136;28;49842;-80
2022/10/30 17:12:28;;;;;;;;;6.75;4.75;;;;;19.33;69.56;101740.56;4948008;28;50517;-80
2022/10/30 17:15:03;;;;;;;;;2.75;2.75;;;;;19.36;69.91;101741.44;4914609;28;49842;-79
2022/10/30 17:17:33;;;;;;;;;4.75;4.00;;;;;19.31;69.77;101751.22;4920305;28;50544;-79
2022/10/30 17:20:01;;;;;;;;;2.50;1.50;;;;;19.29;69.85;101755.63;4934813;28;49832;-79
2022/10/30 17:22:28;;;;;;;;;3.00;2.00;;;;;18.81;69.88;101682.81;4934325;28;49772;-82
2022/10/30 17:24:54;;;;;;;;;1.50;1.50;;;;;18.67;70.34;101676.59;4934910;28;49843;-79
2022/10/30 17:27:28;;;;;;;;;1.25;1.25;;;;;19.17;69.87;101771.59;4934704;28;49693;-79
2022/10/30 17:29:54;;;;;;;;;1.25;1.00;;;;;19.06;70.06;101757.38;4935258;28;49920;-79
2022/10/30 17:32:20;;;;;;;;;1.50;1.50;;;;;19.12;69.95;101774.25;4935681;28;50758;-77
2022/10/30 17:34:47;;;;;;;;;2.75;1.25;;;;;19.09;69.52;101784.88;4917165;28;49879;-78
2022/10/30 17:37:13;;;;;;;;;1.00;1.00;;;;;19.03;69.70;101786.66;4952118;28;50071;-78
2022/10/30 17:39:38;;;;;;;;;2.00;2.00;;;;;18.53;69.28;101719.09;4936208;28;49740;-77
2022/10/30 17:42:04;;;;;;;;;1.00;1.00;;;;;18.99;69.21;101801.72;4944801;28;50027;-79
2022/10/30 17:44:34;;;;;;;;;1.00;1.00;;;;;18.72;68.67;101759.97;4942901;28;49706;-77
2022/10/30 17:47:12;;;;;;;;;1.00;1.00;;;;;18.70;68.81;101763.50;4934400;28;49927;-79
2022/10/30 17:49:38;;;;;;;;;1.00;1.00;;;;;18.70;68.83;101768.81;4934364;28;49644;-77
2022/10/30 17:52:03;;;;;;;;;1.25;1.00;;;;;18.84;69.08;101775.97;4934128;28;54780;-79
2022/10/30 17:54:29;;;;;;;;;3.00;1.00;;;;;18.68;69.00;101752.84;4934254;28;49719;-78
2022/10/30 17:56:56;;;;;;;;;1.00;1.00;;;;;18.33;69.29;101698.63;4934152;28;52958;-78
2022/10/30 17:59:21;;;;;;;;;1.00;1.00;;;;;18.72;68.46;101769.69;4933877;28;49603;-77
2022/10/30 18:01:47;;;;;;;;;1.00;1.00;;;;;18.69;68.66;101769.69;4933907;28;49876;-78
2022/10/30 18:04:17;;;;;;;;;2.25;1.00;;;;;17.75;68.88;101627.50;4950154;28;49726;-79
2022/10/30 18:06:42;;;;;;;;;1.00;1.00;;;;;18.59;69.43;101764.31;4952852;28;49968;-78
2022/10/30 18:09:08;;;;;;;;;1.00;1.00;;;;;18.57;69.29;101766.09;4952609;28;49722;-77
2022/10/30 18:11:34;;;;;;;;;1.25;1.25;;;;;18.60;69.42;101779.38;4934630;28;51254;-78
2022/10/30 18:14:00;;;;;;;;;1.00;1.00;;;;;18.52;69.69;101761.59;4951285;28;49676;-77
2022/10/30 18:16:26;;;;;;;;;1.25;1.25;;;;;18.41;69.66;101758.91;4952308;28;49860;-75
2022/10/30 18:18:53;;;;;;;;;2.00;1.75;;;;;18.33;69.73;101757.09;4944397;28;49837;-79
2022/10/30 18:21:21;;;;;;;;;2.00;2.00;;;;;18.59;70.00;101806.84;4933809;28;49822;-78
2022/10/30 18:23:47;;;;;;;;;2.75;2.75;;;;;18.43;69.76;101777.53;4934264;28;49852;-77
2022/10/30 18:26:20;;;;;;;;;3.00;3.00;;;;;17.40;70.16;101614.00;4933830;28;49836;-78
2022/10/30 18:28:46;;;;;;;;;2.50;2.50;;;;;18.56;70.43;101817.50;4932655;28;49830;-78
2022/10/30 18:31:14;;;;;;;;;3.00;3.00;;;;;18.04;70.38;101752.50;4936160;28;50017;-75
2022/10/30 18:33:41;;;;;;;;;4.00;4.00;;;;;18.07;70.37;101741.94;4943309;28;49628;-78
2022/10/30 18:36:15;;;;;;;;;2.25;2.25;;;;;18.52;70.63;101844.03;4939858;28;51305;-75
2022/10/30 18:38:41;;;;;;;;;3.75;3.75;;;;;18.52;70.40;101826.31;4946818;28;49919;-74
2022/10/30 18:41:32;;;;;;;;;4.00;4.00;;;;;18.49;70.56;101836.06;4921029;28;51325;-75
2022/10/30 18:43:57;;;;;;;;;3.00;3.00;;;;;18.51;70.50;101837.84;4924575;28;49820;-72
2022/10/30 18:46:23;;;;;;;;;4.00;3.00;;;;;18.45;70.42;101835.16;4951670;28;49567;-75
2022/10/30 18:48:48;;;;;;;;;3.00;3.00;;;;;17.99;70.51;101744.53;4924955;28;49911;-76
2022/10/30 18:51:21;;;;;;;;;3.50;3.50;;;;;18.23;70.52;101783.63;4939248;28;58639;-72
2022/10/30 18:53:52;;;;;;;;;4.25;3.75;;;;;18.50;70.60;101836.06;4950819;28;49505;-69
2022/10/30 18:56:26;;;;;;;;;3.00;3.00;;;;;18.46;70.44;101828.06;4950353;28;49878;-72
2022/10/30 18:58:53;;;;;;;;;3.75;3.75;;;;;18.43;70.61;101830.69;4954784;28;49548;-71
2022/10/30 19:01:19;;;;;;;;;1.75;1.75;;;;;18.44;70.83;101835.16;4969434;28;49520;-71
2022/10/30 19:03:45;;;;;;;;;2.75;2.75;;;;;18.19;70.94;101805.75;4946325;28;49530;-74
2022/10/30 19:06:17;;;;;;;;;2.50;2.00;;;;;18.00;71.15;101772.88;4958925;28;49375;-77
2022/10/30 19:08:42;;;;;;;;;2.25;2.25;;;;;18.07;71.39;101780.91;4955593;28;49393;-81
2022/10/30 19:11:11;;;;;;;;;2.00;2.00;;;;;18.35;71.72;101833.34;4953549;28;50529;-79
2022/10/30 19:13:37;;;;;;;;;2.75;2.00;;;;;18.26;71.97;101820.88;4954618;28;49749;-79
2022/10/30 19:16:14;;;;;;;;;1.75;1.75;;;;;17.66;72.03;101729.25;4937496;28;49806;-83
2022/10/30 19:18:40;;;;;;;;;3.00;1.00;;;;;18.28;72.63;101832.41;4923017;28;50166;-81
2022/10/30 19:21:13;;;;;;;;;4.75;3.00;;;;;17.35;72.31;101675.00;4933523;28;49992;-83
2022/10/30 19:23:38;;;;;;;;;4.50;3.75;;;;;17.87;72.64;101786.06;4934770;28;50028;-84
2022/10/30 19:26:04;;;;;;;;;3.00;2.00;;;;;18.01;72.79;101803.88;4955835;28;49716;-73
2022/10/30 19:28:29;;;;;;;;;3.50;3.50;;;;;18.19;72.81;101840.31;4945857;28;49823;-76
2022/10/30 19:30:54;;;;;;;;;3.00;3.00;;;;;18.15;72.86;101843.84;4962546;28;49478;-72
2022/10/30 19:33:21;;;;;;;;;4.25;4.25;;;;;18.13;72.83;101842.03;4943632;28;49303;-72
2022/10/30 19:35:55;;;;;;;;;4.75;4.75;;;;;17.69;72.93;101766.47;4966377;28;49742;-76
2022/10/30 19:38:21;;;;;;;;;2.75;2.00;;;;;18.00;73.28;101819.81;4930658;28;50031;-76
2022/10/30 19:40:46;;;;;;;;;4.75;4.75;;;;;18.03;73.50;101835.75;4945094;28;49839;-72
2022/10/30 19:43:11;;;;;;;;;3.50;3.50;;;;;17.88;73.72;101822.38;4946458;28;65689;-77
2022/10/30 19:45:37;;;;;;;;;3.75;3.75;;;;;17.94;73.97;101833.03;4917873;28;60133;-80